Time;durP1;ratioP1;P1;durP2;ratioP2;P2;SDS_P1;SDS_P2;PMS_P1;PMS_P2;Temp;Humidity;BMP_temperature;BMP_pressure;BME280_temperature;BME280_humidity;BME280_pressure;Samples;Min_cycle;Max_cycle;Signal;HPM_P1;HPM_P2
2021/08/18 00:00:48;;;;;;;10.25;6.25;;;;;;;19.06;93.39;99116.20;1716522;83;20957;-77
2021/08/18 00:03:15;;;;;;;8.73;6.05;;;;;;;19.05;93.71;99117.37;1716649;83;20930;-77
2021/08/18 00:05:41;;;;;;;10.28;6.42;;;;;;;19.06;93.79;99120.38;1716592;83;20937;-77
2021/08/18 00:08:10;;;;;;;9.40;6.70;;;;;;;19.04;94.11;99126.31;1716548;83;20993;-76
2021/08/18 00:10:37;;;;;;;15.83;7.08;;;;;;;19.04;94.48;99122.14;1716740;83;21131;-75
2021/08/18 00:13:04;;;;;;;10.82;5.53;;;;;;;19.05;94.74;99120.97;1716534;83;20980;-75
2021/08/18 00:15:31;;;;;;;12.47;6.45;;;;;;;19.08;95.01;99122.95;1716836;83;20954;-76
2021/08/18 00:18:00;;;;;;;11.30;7.03;;;;;;;19.13;95.15;99108.69;1716562;83;21504;-76
2021/08/18 00:20:29;;;;;;;10.88;7.17;;;;;;;19.18;95.14;99111.72;1716595;83;21504;-76
2021/08/18 00:22:58;;;;;;;10.35;6.80;;;;;;;19.21;94.92;99109.56;1716434;83;20993;-75
2021/08/18 00:25:26;;;;;;;13.85;6.87;;;;;;;19.21;95.18;99110.15;1698739;83;21533;-76
2021/08/18 00:27:54;;;;;;;9.78;6.55;;;;;;;19.21;95.22;99112.34;1716687;83;20901;-75
2021/08/18 00:30:22;;;;;;;19.67;7.62;;;;;;;19.22;95.38;99117.31;1717173;83;20897;-75
2021/08/18 00:32:50;;;;;;;10.75;6.72;;;;;;;19.22;95.70;99118.11;1741430;81;20979;-76
2021/08/18 00:35:16;;;;;;;11.33;6.97;;;;;;;19.25;95.82;99110.39;1757446;81;21538;-76
2021/08/18 00:37:45;;;;;;;9.63;7.33;;;;;;;19.27;95.57;99114.18;1757383;81;21405;-74
2021/08/18 00:40:13;;;;;;;11.15;7.72;;;;;;;19.28;95.55;99110.21;1757522;81;20924;-75
2021/08/18 00:42:40;;;;;;;12.68;7.28;;;;;;;19.29;95.74;99111.81;1757417;81;20972;-74
2021/08/18 00:45:08;;;;;;;13.50;6.65;;;;;;;19.32;95.91;99111.05;1757759;81;20983;-74
2021/08/18 00:47:48;;;;;;;10.05;6.35;;;;;;;19.36;95.85;99117.44;1757436;81;21432;-75
2021/08/18 00:50:19;;;;;;;10.98;7.33;;;;;;;19.35;95.77;99114.45;1754180;81;21030;-75
2021/08/18 00:52:46;;;;;;;12.10;7.72;;;;;;;19.33;95.92;99112.64;1745368;81;21012;-75
2021/08/18 00:55:18;;;;;;;13.53;8.40;;;;;;;19.31;96.16;99115.81;1741436;82;20906;-74
2021/08/18 00:57:45;;;;;;;12.53;7.65;;;;;;;19.29;96.12;99105.66;1741483;82;20894;-75
2021/08/18 01:00:15;;;;;;;10.23;6.90;;;;;;;19.28;96.38;99103.26;1741452;82;21496;-76
2021/08/18 01:02:46;;;;;;;10.28;7.35;;;;;;;19.27;96.70;99105.24;1741487;82;20886;-75
2021/08/18 01:05:18;;;;;;;13.78;8.08;;;;;;;19.27;96.86;99095.50;1741804;82;21460;-75
2021/08/18 01:07:49;;;;;;;12.53;6.92;;;;;;;19.27;97.00;99094.11;1741529;82;21425;-75
2021/08/18 01:10:26;;;;;;;23.75;7.60;;;;;;;19.28;97.20;99096.30;1741643;82;20985;-75
2021/08/18 01:12:53;;;;;;;15.25;7.62;;;;;;;19.27;97.24;99091.33;1722816;82;21075;-75
2021/08/18 01:15:21;;;;;;;10.75;7.55;;;;;;;19.29;97.31;99104.27;1741340;82;20902;-74
2021/08/18 01:17:52;;;;;;;9.65;7.10;;;;;;;19.32;97.43;99105.48;1741558;82;20945;-75
2021/08/18 01:20:24;;;;;;;8.88;7.15;;;;;;;19.33;97.11;99103.70;1747306;82;21009;-77
2021/08/18 01:22:53;;;;;;;11.38;7.30;;;;;;;19.33;97.15;99094.55;1741596;82;20925;-77
2021/08/18 01:25:20;;;;;;;9.45;6.92;;;;;;;19.35;97.26;99090.80;1741533;82;21531;-77
2021/08/18 01:27:50;;;;;;;14.78;7.70;;;;;;;19.38;97.13;99078.89;1741411;82;21682;-76
2021/08/18 01:30:18;;;;;;;8.93;6.90;;;;;;;19.41;97.08;99086.47;1741439;82;20963;-76
2021/08/18 01:32:58;;;;;;;10.30;6.70;;;;;;;19.41;96.62;99091.45;1718528;82;21010;-76
2021/08/18 01:35:32;;;;;;;10.38;7.35;;;;;;;19.38;96.51;99092.81;1711800;83;21457;-76
2021/08/18 01:38:04;;;;;;;10.05;7.17;;;;;;;19.32;96.51;99097.93;1711767;82;21090;-75
2021/08/18 01:40:31;;;;;;;12.10;6.80;;;;;;;19.30;96.75;99095.33;1711605;83;21040;-76
2021/08/18 01:42:59;;;;;;;9.38;6.65;;;;;;;19.24;96.93;99090.70;1711913;82;20977;-76
2021/08/18 01:45:34;;;;;;;9.20;6.45;;;;;;;19.23;97.26;99095.27;1712064;82;20965;-76
2021/08/18 01:48:17;;;;;;;8.18;6.47;;;;;;;19.25;97.30;99099.26;1711872;83;20977;-75
2021/08/18 01:50:46;;;;;;;13.80;6.28;;;;;;;19.27;97.11;99103.05;1711735;82;21075;-74
2021/08/18 01:53:20;;;;;;;10.53;6.55;;;;;;;19.25;96.95;99102.63;1740404;82;20930;-75
2021/08/18 01:55:48;;;;;;;10.43;7.30;;;;;;;19.23;97.17;99094.67;1747794;82;20975;-75
2021/08/18 01:58:16;;;;;;;8.45;6.25;;;;;;;19.19;97.42;99099.41;1747835;82;20949;-75
2021/08/18 02:00:42;;;;;;;9.28;6.72;;;;;;;19.18;97.69;99103.96;1747929;82;20842;-77
2021/08/18 02:03:10;;;;;;;10.35;6.78;;;;;;;19.19;98.07;99100.00;1747695;82;21567;-76
2021/08/18 02:05:36;;;;;;;8.73;6.12;;;;;;;19.22;98.00;99099.23;1748102;82;21808;-73
2021/08/18 02:08:05;;;;;;;11.60;6.62;;;;;;;19.22;97.67;99101.42;1747745;80;20976;-73
2021/08/18 02:10:32;;;;;;;10.80;6.85;;;;;;;19.23;97.72;99109.17;1747741;82;20897;-75
2021/08/18 02:12:59;;;;;;;10.28;6.90;;;;;;;19.19;97.81;99108.34;1747880;82;20988;-76
2021/08/18 02:15:31;;;;;;;14.47;6.97;;;;;;;19.17;98.17;99105.94;1747755;82;21781;-76
2021/08/18 02:17:59;;;;;;;10.95;6.62;;;;;;;19.19;98.42;99116.09;1747694;80;21037;-75
2021/08/18 02:20:28;;;;;;;14.05;7.25;;;;;;;19.21;98.22;99109.56;1747837;81;20925;-76
2021/08/18 02:22:55;;;;;;;9.73;7.10;;;;;;;19.21;98.26;99103.99;1747804;82;21432;-76
2021/08/18 02:25:22;;;;;;;10.80;7.28;;;;;;;19.20;98.13;99102.39;1747865;82;20925;-77
2021/08/18 02:27:50;;;;;;;11.73;7.22;;;;;;;19.20;98.20;99105.77;1747828;81;21488;-77
2021/08/18 02:30:25;;;;;;;12.23;6.50;;;;;;;19.21;98.11;99105.38;1734494;81;21532;-79
2021/08/18 02:32:52;;;;;;;10.90;6.70;;;;;;;19.22;98.07;99108.38;1740122;82;20936;-81
2021/08/18 02:35:19;;;;;;;9.85;6.37;;;;;;;19.23;98.06;99110.56;1747622;82;20891;-81
2021/08/18 02:37:46;;;;;;;11.43;6.70;;;;;;;19.21;98.12;99109.56;1747922;82;21420;-77
2021/08/18 02:40:21;;;;;;;10.20;6.03;;;;;;;19.24;98.19;99104.62;1747755;80;21404;-80
2021/08/18 02:42:52;;;;;;;9.78;6.40;;;;;;;19.28;97.89;99117.17;1747574;82;21047;-80
2021/08/18 02:45:22;;;;;;;8.55;6.53;;;;;;;19.27;97.61;99121.14;1747844;81;20919;-79
2021/08/18 02:47:49;;;;;;;8.70;6.35;;;;;;;19.24;97.54;99125.48;1748017;82;21014;-81
2021/08/18 02:50:19;;;;;;;11.08;6.28;;;;;;;19.22;97.67;99126.46;1747992;82;20887;-80
2021/08/18 02:52:46;;;;;;;10.70;6.05;;;;;;;19.24;98.00;99124.69;1747851;82;21738;-79
2021/08/18 02:55:14;;;;;;;9.45;6.25;;;;;;;19.24;97.87;99126.88;1747573;80;20908;-80
2021/08/18 02:57:41;;;;;;;9.78;5.78;;;;;;;19.25;97.74;99121.52;1747733;81;20924;-78
2021/08/18 03:00:10;;;;;;;10.38;6.28;;;;;;;19.27;97.49;99132.27;1747655;81;20979;-80
2021/08/18 03:02:37;;;;;;;9.38;5.45;;;;;;;19.27;97.16;99129.48;1741729;82;21054;-76
2021/08/18 03:05:05;;;;;;;9.45;5.72;;;;;;;19.21;97.08;99133.20;1731019;82;21208;-75
2021/08/18 03:07:32;;;;;;;7.22;5.45;;;;;;;19.16;97.26;99137.73;1718291;83;20919;-75
2021/08/18 03:10:00;;;;;;;10.23;6.28;;;;;;;19.12;97.30;99132.13;1717929;83;20911;-74
2021/08/18 03:12:27;;;;;;;8.38;5.58;;;;;;;19.11;97.69;99133.91;1717954;83;21046;-74
2021/08/18 03:14:56;;;;;;;11.08;6.00;;;;;;;19.11;97.58;99140.27;1718044;83;20978;-75
2021/08/18 03:17:22;;;;;;;8.85;6.15;;;;;;;19.09;97.41;99151.56;1718037;83;21557;-74
2021/08/18 03:19:50;;;;;;;6.95;5.00;;;;;;;19.06;97.37;99148.96;1717928;83;20950;-76
2021/08/18 03:22:17;;;;;;;7.30;5.05;;;;;;;19.05;97.42;99148.78;1721564;82;20954;-77
2021/08/18 03:24:44;;;;;;;8.93;5.65;;;;;;;19.06;97.43;99139.84;1730058;82;20957;-75
2021/08/18 03:27:13;;;;;;;7.17;5.35;;;;;;;19.07;97.38;99153.94;1731839;80;20927;-75
2021/08/18 03:29:39;;;;;;;9.18;5.75;;;;;;;19.03;96.95;99162.27;1733226;82;21030;-76
2021/08/18 03:32:08;;;;;;;8.88;5.42;;;;;;;18.97;97.08;99163.80;1732139;82;21046;-76
2021/08/18 03:34:34;;;;;;;8.30;5.75;;;;;;;18.95;97.63;99159.80;1737804;82;21514;-75
2021/08/18 03:37:01;;;;;;;7.95;5.65;;;;;;;18.94;98.11;99149.84;1733390;82;21005;-74
2021/08/18 03:39:28;;;;;;;7.83;6.10;;;;;;;18.96;98.40;99145.50;1732690;82;20946;-76
2021/08/18 03:41:56;;;;;;;8.95;5.75;;;;;;;18.96;98.31;99137.16;1732250;82;20929;-75
2021/08/18 03:44:23;;;;;;;7.90;5.40;;;;;;;18.96;98.40;99128.02;1731836;82;21081;-76
2021/08/18 03:46:51;;;;;;;10.58;6.15;;;;;;;18.96;98.40;99113.52;1735221;82;20951;-77
2021/08/18 03:49:19;;;;;;;8.10;6.17;;;;;;;18.97;98.58;99105.98;1730088;82;20970;-76
2021/08/18 03:51:46;;;;;;;9.20;5.60;;;;;;;18.97;98.52;99108.16;1733243;81;21431;-78
2021/08/18 03:54:13;;;;;;;8.05;5.72;;;;;;;18.96;98.46;99113.52;1731302;82;21128;-78
2021/08/18 03:56:41;;;;;;;10.13;6.30;;;;;;;18.88;98.18;99114.63;1730107;82;21525;-78
2021/08/18 03:59:08;;;;;;;8.25;6.10;;;;;;;18.78;98.29;99116.70;1735781;82;21047;-76
2021/08/18 04:01:35;;;;;;;7.37;5.67;;;;;;;18.73;98.01;99117.05;1731614;82;21011;-76
2021/08/18 04:04:03;;;;;;;8.95;5.97;;;;;;;18.67;97.94;99126.31;1733329;82;21009;-80
2021/08/18 04:06:30;;;;;;;14.33;5.83;;;;;;;18.61;98.05;99120.08;1733134;82;21533;-75
2021/08/18 04:08:58;;;;;;;9.90;6.30;;;;;;;18.54;98.34;99123.55;1736115;82;20976;-76
2021/08/18 04:11:26;;;;;;;7.72;6.83;;;;;;;18.51;98.66;99120.12;1729740;82;20990;-77
2021/08/18 04:13:55;;;;;;;7.65;6.22;;;;;;;18.51;98.61;99129.86;1732048;80;21494;-78
2021/08/18 04:16:22;;;;;;;10.55;6.20;;;;;;;18.51;98.81;99133.23;1732259;82;20890;-78
2021/08/18 04:18:50;;;;;;;9.28;6.87;;;;;;;18.53;98.64;99137.82;1729789;82;20839;-77
2021/08/18 04:21:18;;;;;;;14.03;6.83;;;;;;;18.51;98.25;99143.75;1731108;80;20939;-77
2021/08/18 04:23:46;;;;;;;12.80;6.78;;;;;;;18.46;97.51;99140.75;1732942;82;20959;-78
2021/08/18 04:26:13;;;;;;;9.50;6.25;;;;;;;18.43;97.00;99151.23;1730553;82;21123;-78
2021/08/18 04:28:42;;;;;;;13.15;6.80;;;;;;;18.42;96.65;99154.39;1730907;82;20994;-77
2021/08/18 04:31:10;;;;;;;12.88;7.05;;;;;;;18.35;95.83;99146.76;1732933;82;21540;-76
2021/08/18 04:33:37;;;;;;;12.47;6.72;;;;;;;18.29;95.97;99152.44;1731367;82;21008;-74
2021/08/18 04:36:05;;;;;;;6.55;5.42;;;;;;;18.24;95.33;99151.38;1730427;82;21768;-74
2021/08/18 04:38:33;;;;;;;12.15;6.33;;;;;;;18.18;95.36;99155.66;1729171;82;21423;-73
2021/08/18 04:41:00;;;;;;;10.30;6.20;;;;;;;18.15;95.08;99148.07;1718166;83;21492;-76
2021/08/18 04:43:28;;;;;;;12.07;6.15;;;;;;;18.15;95.11;99146.69;1717967;83;20967;-77
2021/08/18 04:45:54;;;;;;;11.55;6.08;;;;;;;18.18;94.87;99151.48;1736656;82;21016;-74
2021/08/18 04:48:23;;;;;;;9.65;5.83;;;;;;;18.22;94.73;99156.50;1732701;82;21047;-76
2021/08/18 04:50:50;;;;;;;9.70;6.53;;;;;;;18.25;94.28;99157.14;1732376;82;21504;-75
2021/08/18 04:53:17;;;;;;;13.72;5.90;;;;;;;18.27;94.18;99163.71;1727837;81;21048;-75
2021/08/18 04:55:47;;;;;;;8.13;5.92;;;;;;;18.30;93.81;99167.93;1727503;82;21116;-76
2021/08/18 04:58:15;;;;;;;9.33;5.70;;;;;;;18.33;93.40;99174.71;1728317;82;20902;-78
2021/08/18 05:00:41;;;;;;;8.53;4.62;;;;;;;18.32;92.84;99173.91;1722011;82;21475;-78
2021/08/18 05:03:13;;;;;;;8.95;5.65;;;;;;;18.32;91.48;99175.30;1726897;82;21004;-76
2021/08/18 05:05:43;;;;;;;9.53;5.53;;;;;;;18.29;91.30;99176.05;1728276;82;20944;-76
2021/08/18 05:08:09;;;;;;;9.65;5.70;;;;;;;18.28;90.87;99177.81;1724878;82;21749;-74
2021/08/18 05:10:37;;;;;;;10.13;5.60;;;;;;;18.25;90.73;99176.59;1711899;83;21491;-75
2021/08/18 05:13:04;;;;;;;11.88;4.65;;;;;;;18.24;90.70;99182.52;1712076;83;20933;-75
2021/08/18 05:15:32;;;;;;;7.22;4.78;;;;;;;18.20;90.14;99186.64;1711904;83;20906;-74
2021/08/18 05:18:00;;;;;;;11.80;5.25;;;;;;;18.14;89.95;99195.08;1712118;83;20942;-74
2021/08/18 05:20:28;;;;;;;9.90;5.28;;;;;;;18.07;90.26;99204.70;1711944;83;20969;-74
2021/08/18 05:22:54;;;;;;;8.85;5.42;;;;;;;18.00;90.23;99210.94;1712162;83;21357;-74
2021/08/18 05:25:21;;;;;;;12.65;5.25;;;;;;;17.99;90.17;99203.78;1711914;83;21456;-76
2021/08/18 05:27:48;;;;;;;19.80;5.72;;;;;;;18.02;90.13;99210.57;1720737;80;21545;-76
2021/08/18 05:30:15;;;;;;;17.17;6.40;;;;;;;18.02;90.40;99210.57;1720911;82;20940;-75
2021/08/18 05:32:42;;;;;;;14.87;5.97;;;;;;;17.99;91.16;99216.87;1713452;83;21036;-75
2021/08/18 05:35:13;;;;;;;11.83;6.40;;;;;;;17.94;91.98;99206.08;1725948;82;20975;-74
2021/08/18 05:37:41;;;;;;;11.48;5.95;;;;;;;17.89;92.92;99203.65;1719286;82;20915;-75
2021/08/18 05:40:10;;;;;;;10.88;5.65;;;;;;;17.80;93.36;99210.26;1743022;82;20967;-69
2021/08/18 05:42:38;;;;;;;10.58;6.70;;;;;;;17.75;94.50;99215.32;1723516;82;20978;-75
2021/08/18 05:45:08;;;;;;;14.80;6.25;;;;;;;17.68;95.30;99210.45;1711891;83;21243;-76
2021/08/18 05:47:36;;;;;;;12.65;5.90;;;;;;;17.67;95.58;99215.78;1703788;83;20921;-76
2021/08/18 05:50:03;;;;;;;12.05;6.50;;;;;;;17.67;95.46;99216.37;1711968;83;20858;-75
2021/08/18 05:52:30;;;;;;;10.00;6.47;;;;;;;17.63;95.84;99228.77;1729478;80;21722;-75
2021/08/18 05:55:01;;;;;;;11.53;5.97;;;;;;;17.61;95.36;99232.50;1709318;82;20973;-75
2021/08/18 05:57:25;;;;;;;8.78;5.62;;;;;;;17.57;95.21;99241.35;1709994;83;22039;-74
2021/08/18 05:59:52;;;;;;;8.10;5.75;;;;;;;17.54;95.22;99242.67;1709692;84;21444;-72
2021/08/18 06:02:22;;;;;;;7.22;5.08;;;;;;;17.54;95.76;99244.06;1709556;84;20906;-77
2021/08/18 06:04:48;;;;;;;8.25;5.10;;;;;;;17.53;95.99;99240.48;1708291;83;20986;-74
2021/08/18 06:07:15;;;;;;;12.75;5.65;;;;;;;17.51;95.84;99237.28;1709648;84;20870;-75
2021/08/18 06:09:42;;;;;;;8.25;5.60;;;;;;;17.48;96.27;99238.02;1701088;84;21460;-75
2021/08/18 06:12:09;;;;;;;12.25;6.03;;;;;;;17.45;96.89;99234.00;1693049;84;20896;-73
2021/08/18 06:14:38;;;;;;;9.25;6.35;;;;;;;17.47;97.18;99224.73;1681059;84;20963;-74
2021/08/18 06:17:07;;;;;;;11.45;6.35;;;;;;;17.49;97.60;99219.61;1681126;85;21031;-74
2021/08/18 06:19:34;;;;;;;8.80;5.83;;;;;;;17.52;97.93;99202.80;1681149;85;20956;-74
2021/08/18 06:22:01;;;;;;;12.07;6.08;;;;;;;17.56;97.58;99200.09;1682317;84;21124;-76
2021/08/18 06:24:50;;;;;;;10.30;6.22;;;;;;;17.59;97.45;99191.83;1693604;84;21046;-74
2021/08/18 06:27:01;;;;;;;7.62;5.65;;;;;;;17.64;96.98;99181.80;1703529;83;21488;-74
2021/08/18 06:29:31;;;;;;;12.43;6.05;;;;;;;17.68;97.21;99183.28;1709135;83;21542;-74
2021/08/18 06:31:59;;;;;;;12.17;6.47;;;;;;;17.68;96.16;99178.53;1709179;84;20988;-72
2021/08/18 06:34:25;;;;;;;12.28;6.10;;;;;;;17.65;96.74;99181.22;1709202;84;21421;-72
2021/08/18 06:36:52;;;;;;;8.73;6.20;;;;;;;17.63;96.23;99184.95;1708878;84;20932;-73
2021/08/18 06:39:22;;;;;;;12.73;6.65;;;;;;;17.59;96.26;99179.34;1708828;84;21012;-72
2021/08/18 06:41:49;;;;;;;8.63;5.97;;;;;;;17.61;96.83;99166.48;1708801;84;21035;-72
2021/08/18 06:44:17;;;;;;;12.78;7.12;;;;;;;17.67;97.09;99156.69;1700367;84;21078;-74
2021/08/18 06:46:44;;;;;;;10.68;5.60;;;;;;;17.69;96.24;99152.38;1681374;84;21144;-72
2021/08/18 06:49:10;;;;;;;6.55;5.42;;;;;;;17.68;96.05;99154.94;1680624;84;21041;-75
2021/08/18 06:51:37;;;;;;;7.10;5.50;;;;;;;17.66;95.28;99153.12;1708020;83;21075;-73
2021/08/18 06:54:05;;;;;;;7.20;5.83;;;;;;;17.65;95.90;99155.67;1711446;82;21526;-73
2021/08/18 06:56:33;;;;;;;10.38;5.40;;;;;;;17.64;95.81;99152.66;1747090;82;20979;-73
2021/08/18 06:59:00;;;;;;;9.38;5.58;;;;;;;17.64;96.62;99154.63;1747057;82;21073;-87
2021/08/18 07:01:28;;;;;;;7.35;5.40;;;;;;;17.61;96.17;99161.73;1747034;82;20951;-72
2021/08/18 07:03:55;;;;;;;8.23;5.58;;;;;;;17.57;96.29;99171.97;1743585;82;21003;-73
2021/08/18 07:06:21;;;;;;;9.13;5.40;;;;;;;17.56;96.81;99164.02;1734569;82;20995;-73
2021/08/18 07:08:48;;;;;;;7.45;5.20;;;;;;;17.57;96.70;99162.25;1747677;81;21002;-73
2021/08/18 07:11:14;;;;;;;9.48;6.10;;;;;;;17.62;97.24;99153.62;1747797;82;21133;-72
2021/08/18 07:13:42;;;;;;;9.25;5.80;;;;;;;17.70;96.44;99153.17;1746939;80;20916;-76
2021/08/18 07:16:10;;;;;;;13.10;6.12;;;;;;;17.73;95.65;99153.81;1749269;80;21499;-72
2021/08/18 07:18:37;;;;;;;7.83;6.37;;;;;;;17.71;95.43;99152.00;1735938;82;21096;-73
2021/08/18 07:21:04;;;;;;;9.78;6.55;;;;;;;17.69;95.61;99152.38;1735710;82;21072;-72
2021/08/18 07:23:32;;;;;;;10.05;6.35;;;;;;;17.72;96.67;99150.83;1735887;82;20993;-76
2021/08/18 07:25:58;;;;;;;11.57;6.80;;;;;;;17.78;96.40;99157.08;1736787;80;21575;-75
2021/08/18 07:28:25;;;;;;;11.97;6.83;;;;;;;17.83;96.08;99164.88;1747300;82;21090;-73
2021/08/18 07:30:51;;;;;;;10.50;6.37;;;;;;;17.81;95.61;99155.53;1747836;80;21078;-74
2021/08/18 07:33:17;;;;;;;10.08;6.20;;;;;;;17.86;96.47;99152.44;1772666;80;21022;-74
2021/08/18 07:35:44;;;;;;;10.65;6.53;;;;;;;17.97;97.18;99153.37;1737907;80;21113;-75
2021/08/18 07:38:10;;;;;;;11.85;5.85;;;;;;;18.03;96.40;99149.68;1739683;82;21006;-73
2021/08/18 07:40:37;;;;;;;10.48;5.75;;;;;;;18.11;97.04;99155.55;1737654;80;21000;-77
2021/08/18 07:43:05;;;;;;;9.83;6.00;;;;;;;18.20;96.30;99160.24;1731150;80;20939;-73
2021/08/18 07:45:31;;;;;;;12.28;6.00;;;;;;;18.29;95.72;99161.36;1733027;82;20896;-72
2021/08/18 07:47:58;;;;;;;15.23;5.95;;;;;;;18.36;95.79;99166.42;1734410;82;21093;-73
2021/08/18 07:50:24;;;;;;;7.95;5.62;;;;;;;18.49;94.98;99170.53;1732077;82;20905;-73
2021/08/18 07:52:51;;;;;;;11.65;6.15;;;;;;;18.56;95.02;99164.86;1729727;82;21068;-76
2021/08/18 07:55:18;;;;;;;7.37;5.95;;;;;;;18.62;94.67;99164.77;1728247;82;21014;-74
2021/08/18 07:57:44;;;;;;;9.68;6.15;;;;;;;18.67;93.61;99168.61;1726262;82;20932;-73
2021/08/18 08:00:12;;;;;;;9.45;5.67;;;;;;;18.66;91.96;99173.95;1725030;82;21129;-75
2021/08/18 08:02:44;;;;;;;8.50;5.90;;;;;;;18.64;92.32;99176.31;1737930;82;20918;-76
2021/08/18 08:05:14;;;;;;;8.23;5.95;;;;;;;18.67;93.06;99172.19;1733930;82;21047;-75
2021/08/18 08:07:42;;;;;;;13.38;6.50;;;;;;;18.73;92.50;99172.65;1733566;82;21011;-77
2021/08/18 08:10:11;;;;;;;11.33;5.90;;;;;;;18.72;91.50;99170.46;1733695;80;21336;-78
2021/08/18 08:12:38;;;;;;;13.08;6.53;;;;;;;18.69;91.07;99174.00;1725872;82;21776;-79
2021/08/18 08:15:07;;;;;;;9.25;6.67;;;;;;;18.66;90.87;99174.75;1729540;81;21436;-76
2021/08/18 08:17:35;;;;;;;9.58;6.15;;;;;;;18.62;90.34;99172.52;1725261;82;20946;-76
2021/08/18 08:20:03;;;;;;;11.68;6.33;;;;;;;18.56;91.79;99170.42;1727004;82;21011;-77
2021/08/18 08:22:29;;;;;;;11.90;6.87;;;;;;;18.57;92.39;99178.37;1728416;82;21040;-76
2021/08/18 08:24:56;;;;;;;11.57;6.15;;;;;;;18.53;90.36;99176.73;1711692;83;21142;-76
2021/08/18 08:27:23;;;;;;;9.20;6.17;;;;;;;18.45;91.87;99177.26;1712128;83;20858;-76
2021/08/18 08:29:49;;;;;;;12.10;6.75;;;;;;;18.51;92.86;99174.33;1711946;83;21483;-76
2021/08/18 08:32:16;;;;;;;13.48;6.12;;;;;;;18.61;92.34;99179.26;1711941;83;20968;-76
2021/08/18 08:34:44;;;;;;;12.53;6.62;;;;;;;18.74;92.13;99179.81;1711875;83;20957;-75
2021/08/18 08:37:12;;;;;;;7.15;6.20;;;;;;;18.82;92.16;99167.59;1711959;83;21017;-74
2021/08/18 08:39:39;;;;;;;11.57;6.92;;;;;;;18.83;90.83;99169.20;1720763;82;21011;-75
2021/08/18 08:42:06;;;;;;;12.20;6.40;;;;;;;18.87;90.80;99167.84;1733238;82;20868;-76
2021/08/18 08:44:33;;;;;;;7.87;6.75;;;;;;;18.92;91.64;99166.92;1731274;82;21065;-70
2021/08/18 08:47:01;;;;;;;13.00;6.67;;;;;;;18.97;90.45;99168.56;1733973;81;20970;-70
2021/08/18 08:49:27;;;;;;;12.23;6.50;;;;;;;18.96;90.75;99164.17;1742933;82;21045;-70
2021/08/18 08:51:55;;;;;;;12.05;6.90;;;;;;;18.98;90.39;99170.96;1743035;80;20888;-70
2021/08/18 08:54:23;;;;;;;12.75;6.58;;;;;;;18.98;90.33;99168.18;1736012;82;20905;-71
2021/08/18 08:56:49;;;;;;;11.50;6.60;;;;;;;18.94;88.93;99172.10;1722477;83;20927;-70
2021/08/18 08:59:16;;;;;;;11.25;6.50;;;;;;;18.90;89.14;99175.43;1722585;83;21423;-69
2021/08/18 09:02:03;;;;;;;9.88;7.20;;;;;;;18.88;88.84;99176.40;1723132;83;21093;-71
2021/08/18 09:04:37;;;;;;;9.15;6.62;;;;;;;18.87;88.72;99180.36;1713829;83;20955;-71
2021/08/18 09:07:13;;;;;;;10.65;7.22;;;;;;;18.80;88.73;99183.27;1712292;82;21005;-69
2021/08/18 09:09:52;;;;;;;10.18;6.90;;;;;;;18.80;90.15;99186.05;1712131;82;20947;-71
2021/08/18 09:12:22;;;;;;;12.25;7.42;;;;;;;18.77;89.64;99179.05;1710418;82;20996;-69
2021/08/18 09:14:48;;;;;;;11.63;7.53;;;;;;;18.71;89.84;99184.73;1694476;83;21772;-69
2021/08/18 09:17:35;;;;;;;12.07;7.72;;;;;;;18.72;91.08;99187.73;1715817;83;20931;-69
2021/08/18 09:20:14;;;;;;;11.65;7.15;;;;;;;18.73;91.58;99193.50;1709862;83;21011;-70
2021/08/18 09:22:51;;;;;;;12.50;7.15;;;;;;;18.76;91.82;99195.53;1700068;83;20995;-72
2021/08/18 09:25:28;;;;;;;10.88;8.13;;;;;;;18.83;91.48;99195.61;1694753;82;20991;-70
2021/08/18 09:28:04;;;;;;;10.90;7.55;;;;;;;18.81;90.54;99197.97;1693576;84;21469;-71
2021/08/18 09:30:41;;;;;;;12.95;7.85;;;;;;;18.86;91.49;99200.42;1678488;83;21018;-73
2021/08/18 09:33:19;;;;;;;11.28;7.17;;;;;;;18.96;91.99;99203.91;1706623;83;20932;-70
2021/08/18 09:35:56;;;;;;;10.13;7.65;;;;;;;19.12;92.40;99212.02;1693559;84;20928;-69
2021/08/18 09:38:26;;;;;;;10.80;7.60;;;;;;;19.20;91.80;99208.72;1693696;84;20947;-70
2021/08/18 09:40:54;;;;;;;9.20;7.60;;;;;;;19.27;91.78;99206.02;1693692;84;21155;-70
2021/08/18 09:43:28;;;;;;;10.00;7.80;;;;;;;19.30;91.62;99210.81;1693999;84;21462;-68
2021/08/18 09:46:01;;;;;;;11.22;7.17;;;;;;;19.28;90.77;99210.39;1693779;83;20983;-70
2021/08/18 09:48:35;;;;;;;10.30;8.20;;;;;;;19.27;89.77;99212.97;1694007;84;20939;-70
2021/08/18 09:51:05;;;;;;;9.35;7.12;;;;;;;19.23;89.92;99210.73;1693740;84;20960;-84
2021/08/18 09:53:40;;;;;;;10.85;7.22;;;;;;;19.27;87.79;99216.55;1709825;83;21139;-70
2021/08/18 09:56:16;;;;;;;13.28;7.53;;;;;;;19.26;87.45;99214.15;1710289;82;20857;-70
2021/08/18 09:58:50;;;;;;;11.68;7.40;;;;;;;19.22;88.04;99211.92;1709652;84;21459;-72
2021/08/18 10:01:18;;;;;;;13.68;7.55;;;;;;;19.28;87.94;99213.98;1710150;83;20904;-73
2021/08/18 10:03:48;;;;;;;13.83;8.48;;;;;;;19.31;87.10;99213.22;1707545;84;20920;-72
2021/08/18 10:06:16;;;;;;;12.75;8.05;;;;;;;19.45;88.12;99216.73;1709537;83;21121;-70
2021/08/18 10:08:45;;;;;;;7.75;6.67;;;;;;;19.66;88.53;99214.74;1709473;83;21436;-70
2021/08/18 10:11:15;;;;;;;19.15;8.53;;;;;;;19.85;87.02;99217.89;1709272;83;20924;-72
2021/08/18 10:13:44;;;;;;;11.33;7.55;;;;;;;19.98;85.80;99203.88;1700937;84;20929;-73
2021/08/18 10:16:13;;;;;;;10.08;7.12;;;;;;;20.11;85.45;99196.20;1704330;83;20979;-72
2021/08/18 10:18:46;;;;;;;7.05;6.17;;;;;;;20.36;85.32;99194.94;1704286;83;20904;-73
2021/08/18 10:21:28;;;;;;;12.53;7.07;;;;;;;20.55;83.73;99193.08;1704356;84;20955;-72
2021/08/18 10:23:58;;;;;;;15.00;6.78;;;;;;;20.67;81.78;99196.33;1686253;84;21428;-73
2021/08/18 10:26:40;;;;;;;21.33;8.50;;;;;;;20.74;79.49;99183.02;1704255;84;20884;-73
2021/08/18 10:29:12;;;;;;;17.82;7.65;;;;;;;20.67;79.38;99182.39;1704569;84;20940;-72
2021/08/18 10:31:47;;;;;;;13.18;7.50;;;;;;;20.63;79.30;99184.36;1704262;84;21125;-76
2021/08/18 10:34:42;;;;;;;9.50;6.80;;;;;;;20.66;80.31;99178.59;1703431;83;20944;-75
2021/08/18 10:37:23;;;;;;;31.97;10.50;;;;;;;20.81;80.36;99177.43;1700506;84;20955;-76
2021/08/18 10:39:52;;;;;;;11.73;7.85;;;;;;;21.13;81.69;99168.36;1695602;84;21507;-74
2021/08/18 10:42:40;;;;;;;33.30;10.90;;;;;;;21.51;80.35;99156.45;1694180;84;20951;-71
2021/08/18 10:45:36;;;;;;;10.80;7.33;;;;;;;21.94;78.59;99148.86;1697131;84;21117;-75
2021/08/18 10:48:03;;;;;;;19.37;8.80;;;;;;;22.27;74.21;99142.60;1687649;84;20938;-74
2021/08/18 10:50:40;;;;;;;12.18;6.40;;;;;;;22.44;72.10;99139.55;1679934;84;21026;-73
2021/08/18 10:53:28;;;;;;;9.10;6.55;;;;;;;22.52;71.69;99139.72;1689716;84;20951;-74
2021/08/18 10:55:55;;;;;;;10.05;6.17;;;;;;;22.67;71.82;99140.63;1722098;82;21064;-75
2021/08/18 10:58:30;;;;;;;8.30;6.78;;;;;;;22.83;72.05;99141.59;1716483;83;21120;-79
2021/08/18 11:00:57;;;;;;;17.92;8.40;;;;;;;22.95;71.85;99140.33;1716451;83;20897;-72
2021/08/18 11:03:27;;;;;;;13.13;7.22;;;;;;;22.97;71.63;99142.91;1716194;83;20945;-74
2021/08/18 11:05:53;;;;;;;19.80;8.90;;;;;;;23.00;69.93;99142.09;1716724;83;20901;-76
2021/08/18 11:08:40;;;;;;;12.85;7.20;;;;;;;22.98;70.23;99133.91;1726796;82;20983;-74
2021/08/18 11:11:13;;;;;;;24.43;8.18;;;;;;;22.97;67.79;99135.91;1721656;82;21505;-72
2021/08/18 11:14:09;;;;;;;17.50;7.55;;;;;;;23.19;66.23;99128.75;1747502;81;20982;-73
2021/08/18 11:16:36;;;;;;;24.37;11.25;;;;;;;23.22;66.79;99128.73;1747818;82;20892;-74
2021/08/18 11:19:09;;;;;;;15.05;7.90;;;;;;;23.33;66.62;99118.25;1747675;82;38018;-74
2021/08/18 11:21:41;;;;;;;23.07;8.65;;;;;;;23.48;65.60;99121.73;1747839;81;21593;-73
2021/08/18 11:24:16;;;;;;;27.58;8.30;;;;;;;23.52;65.28;99127.31;1747800;82;21089;-76
2021/08/18 11:26:45;;;;;;;16.35;6.95;;;;;;;23.56;64.83;99126.10;1744000;81;21003;-78
2021/08/18 11:29:23;;;;;;;13.10;6.42;;;;;;;23.63;64.11;99125.25;1733029;80;20983;-74
2021/08/18 11:31:53;;;;;;;10.82;6.22;;;;;;;23.64;64.13;99120.62;1732916;82;21041;-73
2021/08/18 11:34:28;;;;;;;9.25;6.15;;;;;;;23.57;64.33;99119.89;1731455;82;21065;-72
2021/08/18 11:37:03;;;;;;;10.13;6.67;;;;;;;23.36;64.57;99122.23;1724717;82;21789;-76
2021/08/18 11:39:36;;;;;;;13.28;7.28;;;;;;;23.15;65.41;99132.17;1716606;83;20937;-76